Williamsport Regional Airport Williamsport US
ICAO: KIPT
IATA: IPT
Category: Medium
Scheduled Services: Yes

Elevation: 529 ft
TransAlt. 18000 ft.

Airport Communications:
ASOS:125.225
NEW YORK CLNC DEL:124.9
NEW YORK CNTR:124.9
CTAF:119.1
GND:121.9
RDO:122.2
TWR:119.1
UNICOM:122.95

KIPT Zoom In..

Runways:

(A) RW 09 length 6824 ft width 150 ft
---- / hdg 87

(B) RW 12 length 4273 ft width 150 ft
---- / hdg 116

(C) RW 27 length 6824 ft width 150 ft
ILS 110.10 / hdg 267

(D) RW 30 length 4273 ft width 150 ft
---- / hdg 296

Location; KIPT
Day. 13 / Time. 13.06 Zulu
* Altimeter: 29.87
* Temperature: 21° c. 69.8°f.
* Wind from: 260° Speed 09 kn.
Dewpoint: 17° c.
Visibility: 10 Statute Miles.
Clouds: Scattered 1100 ft.
Clouds: Scattered 1800 ft.

KIPT 131306Z 26009KT 10SM SCT011 SCT018 21/17 A2987 RMK AO2 T02060167 $

Going to: --> -->


Wind From 260°
Speed 09 kn.

 
 
jpsmedia worldairports.se 2020   terms of use